Dati Storici

Data ora Umidita' aria (%) Temperatura aria (°C) Rad globale (W/m²) Gonioanemometro (°) Tacoanemometro (m/s) Pioggia (mm)
17-06-2020 20:10 75.7 % 21.429 -71.43 -0.014 0 0
17-06-2020 20:00 76.1 % 21.314 -61.317 2.019 0 0
17-06-2020 19:50 78.3 % 21.393 -76.518 1.255 0 0
17-06-2020 19:40 77.2 % 21.477 -61.499 2.4 0 0
17-06-2020 19:30 75.6 % 21.583 -64.184 -0.018 0 0
17-06-2020 19:20 74.2 % 21.735 -69.901 0.408 0 0
17-06-2020 19:10 71.8 % 22.23 -67.433 -0.028 0 0
17-06-2020 19:00 70.1 % 22.904 -66.624 -0.029 0 0
17-06-2020 18:50 69.1 % 23.047 -65.16 -0.023 0 0
17-06-2020 18:40 67.7 % 23.016 -69.328 -0.018 0 0
17-06-2020 18:30 65.1 % 23.147 -64.811 -0.029 0 0
17-06-2020 18:20 63.5 % 22.939 -57.559 0.249 0 0
17-06-2020 18:10 62.5 % 24.144 -59.204 -0.035 0 0
17-06-2020 18:00 62.8 % 24.136 -71.588 -0.024 0 0
17-06-2020 17:50 62.3 % 23.868 -70.875 0.267 0 0
17-06-2020 17:40 63.7 % 24.279 -73.819 -0.029 0 0
17-06-2020 17:30 66.4 % 23.515 -56.521 -0.024 0 0
17-06-2020 17:20 69 % 22.693 -44.941 -0.024 0 0
17-06-2020 17:10 69.6 % 22.235 -51.622 -0.021 0 0
17-06-2020 17:00 71.3 % 21.887 -51.236 -0.014 0 0

I dati sono presentati in modo automatico a scopo informativo. In seguito a verifica i dati possono subire modifiche o essere invalidati e non riportati negli archivi definitivi.